createdAt,value
2022-12-17T00:02:41.635Z,33.10
2022-12-17T00:05:27.220Z,20.80
2022-12-17T00:11:35.371Z,29.77
2022-12-17T00:14:20.577Z,28.97
2022-12-17T00:17:05.748Z,26.93
2022-12-17T00:19:51.095Z,21.63
2022-12-17T00:22:53.521Z,20.60
2022-12-17T00:25:42.658Z,19.80
2022-12-17T00:28:31.006Z,19.03
2022-12-17T00:31:16.172Z,23.13
2022-12-17T00:34:04.932Z,29.63
2022-12-17T00:36:50.026Z,29.43
2022-12-17T00:39:35.825Z,24.40
2022-12-17T00:42:20.766Z,31.03
2022-12-17T00:45:05.822Z,31.00
2022-12-17T00:47:50.677Z,26.30
2022-12-17T00:50:36.163Z,29.37
2022-12-17T00:53:21.021Z,29.17
2022-12-17T00:56:05.848Z,34.10
2022-12-17T00:58:50.755Z,25.37
2022-12-17T01:01:37.668Z,25.57
2022-12-17T01:04:23.184Z,27.53
2022-12-17T01:07:08.824Z,30.30
2022-12-17T01:09:57.351Z,19.37
2022-12-17T01:12:42.096Z,27.60
2022-12-17T01:15:29.874Z,31.13
2022-12-17T01:18:14.791Z,28.70
2022-12-17T01:20:59.611Z,24.50
2022-12-17T01:23:44.777Z,25.07
2022-12-17T01:26:30.115Z,20.20
2022-12-17T01:29:18.843Z,20.53
2022-12-17T01:32:03.714Z,26.00
2022-12-17T01:34:50.533Z,19.70
2022-12-17T01:37:35.369Z,21.43
2022-12-17T01:40:20.097Z,19.03
2022-12-17T01:43:05.573Z,19.13
2022-12-17T01:45:58.053Z,21.83
2022-12-17T01:48:50.795Z,26.75
2022-12-17T01:51:37.099Z,21.85
2022-12-17T01:54:23.254Z,19.17
2022-12-17T01:57:09.171Z,16.73
2022-12-17T02:00:15.969Z,23.30
2022-12-17T02:03:02.148Z,20.40
2022-12-17T02:05:56.273Z,21.20
2022-12-17T02:08:55.981Z,14.50
2022-12-17T02:12:02.725Z,17.60
2022-12-17T02:15:20.992Z,27.57
2022-12-17T02:18:14.184Z,25.27
2022-12-17T02:21:13.000Z,21.70
2022-12-17T02:24:07.118Z,18.43
2022-12-17T02:27:02.197Z,33.23
2022-12-17T02:29:52.523Z,27.97
2022-12-17T02:32:39.105Z,20.73
2022-12-17T02:35:52.042Z,26.83
2022-12-17T02:38:50.309Z,20.80
2022-12-17T02:41:41.157Z,18.60
2022-12-17T02:44:30.266Z,26.13
2022-12-17T02:47:18.149Z,33.03
2022-12-17T02:50:03.884Z,28.57
2022-12-17T02:52:52.128Z,31.50
2022-12-17T02:55:37.068Z,26.20
2022-12-17T02:58:27.253Z,18.97
2022-12-17T03:01:12.252Z,21.77
2022-12-17T03:03:59.143Z,21.37
2022-12-17T03:06:44.320Z,23.83
2022-12-17T03:09:28.965Z,27.73
2022-12-17T03:12:14.006Z,30.80
2022-12-17T03:14:58.876Z,21.93
2022-12-17T03:17:49.649Z,23.30
2022-12-17T03:20:34.966Z,26.70
2022-12-17T03:23:25.626Z,22.40
2022-12-17T03:26:10.886Z,22.07
2022-12-17T03:28:56.352Z,16.67
2022-12-17T03:31:41.787Z,21.73
2022-12-17T03:34:27.115Z,26.33
2022-12-17T03:37:11.954Z,27.00
2022-12-17T03:39:56.951Z,19.67
2022-12-17T03:42:42.357Z,17.87
2022-12-17T03:45:27.993Z,23.23
2022-12-17T03:48:32.503Z,26.97
2022-12-17T03:51:18.735Z,20.80
2022-12-17T03:54:04.936Z,20.53
2022-12-17T03:56:51.261Z,25.77
2022-12-17T03:59:38.783Z,24.13
2022-12-17T04:02:24.937Z,24.93
2022-12-17T04:05:20.747Z,20.30
2022-12-17T04:08:06.631Z,27.83
2022-12-17T04:10:51.720Z,24.83
2022-12-17T04:13:40.745Z,17.53
2022-12-17T04:16:26.624Z,18.37
2022-12-17T04:19:11.726Z,13.57
2022-12-17T04:21:56.808Z,22.50
2022-12-17T04:24:44.114Z,19.50
2022-12-17T04:27:29.265Z,22.43
2022-12-17T04:30:14.014Z,23.43
2022-12-17T04:32:58.879Z,33.57
2022-12-17T04:35:43.797Z,27.80
2022-12-17T04:38:31.364Z,29.93
2022-12-17T04:41:18.985Z,20.87
2022-12-17T04:44:03.810Z,27.40
2022-12-17T04:46:49.764Z,29.40
2022-12-17T04:49:35.122Z,39.10
2022-12-17T04:52:19.872Z,22.47
2022-12-17T04:55:05.043Z,27.47
2022-12-17T04:57:50.187Z,23.10
2022-12-17T05:00:37.572Z,28.87
2022-12-17T05:03:30.507Z,21.93
2022-12-17T05:06:15.643Z,23.33
2022-12-17T05:09:03.428Z,17.57
2022-12-17T05:11:48.503Z,20.40
2022-12-17T05:14:34.511Z,33.13
2022-12-17T05:17:19.866Z,32.77
2022-12-17T05:20:05.992Z,23.27
2022-12-17T05:22:54.202Z,24.87
2022-12-17T05:25:39.071Z,24.30
2022-12-17T05:28:24.051Z,22.73
2022-12-17T05:31:13.482Z,33.70
2022-12-17T05:34:01.616Z,27.23
2022-12-17T05:36:47.114Z,34.10
2022-12-17T05:39:32.272Z,39.93
2022-12-17T05:42:17.575Z,37.40
2022-12-17T05:45:02.713Z,33.20
2022-12-17T05:47:47.689Z,26.70
2022-12-17T05:50:32.749Z,31.97
2022-12-17T05:53:24.806Z,18.20
2022-12-17T05:56:12.583Z,28.38
2022-12-17T05:58:58.619Z,21.40
2022-12-17T06:01:43.713Z,36.40
2022-12-17T06:04:33.741Z,22.87
2022-12-17T06:07:18.739Z,30.67
2022-12-17T06:10:04.196Z,16.47
2022-12-17T06:12:49.083Z,20.40
2022-12-17T06:15:34.092Z,26.23
2022-12-17T06:18:18.885Z,20.97
2022-12-17T06:21:04.642Z,31.57
2022-12-17T06:23:50.239Z,27.73
2022-12-17T06:26:35.244Z,20.07
2022-12-17T06:29:20.118Z,31.33
2022-12-17T06:32:05.128Z,33.13
2022-12-17T06:34:50.006Z,29.13
2022-12-17T06:37:35.029Z,29.70
2022-12-17T06:40:20.010Z,30.27
2022-12-17T06:43:15.215Z,41.20
2022-12-17T06:46:02.156Z,32.40
2022-12-17T06:48:47.079Z,33.50
2022-12-17T06:51:34.660Z,56.90
2022-12-17T06:54:19.881Z,31.53
2022-12-17T06:57:04.908Z,43.00
2022-12-17T06:59:49.749Z,44.97
2022-12-17T07:02:34.806Z,31.43
2022-12-17T07:05:20.183Z,43.10
2022-12-17T07:08:05.066Z,59.00
2022-12-17T07:10:51.571Z,45.87
2022-12-17T07:13:37.693Z,43.27
2022-12-17T07:16:22.772Z,32.20
2022-12-17T07:19:07.958Z,50.43
2022-12-17T07:21:53.099Z,42.13
2022-12-17T07:24:38.050Z,42.33
2022-12-17T07:27:23.242Z,43.23
2022-12-17T07:30:07.986Z,43.43
2022-12-17T07:32:54.402Z,50.73
2022-12-17T07:35:41.870Z,42.23
2022-12-17T07:38:38.457Z,52.40
2022-12-17T07:41:23.479Z,67.97
2022-12-17T07:44:11.154Z,59.73
2022-12-17T07:46:56.071Z,34.97
2022-12-17T07:49:41.584Z,40.43
2022-12-17T07:52:26.735Z,31.60
2022-12-17T07:55:15.465Z,43.43
2022-12-17T07:58:03.005Z,37.97
2022-12-17T08:00:49.570Z,28.07
2022-12-17T08:03:35.433Z,34.30
2022-12-17T08:06:21.043Z,25.13
2022-12-17T08:09:06.208Z,22.23
2022-12-17T08:11:51.099Z,28.37
2022-12-17T08:14:35.918Z,30.17
2022-12-17T08:17:20.865Z,24.50
2022-12-17T08:20:05.841Z,36.37
2022-12-17T08:22:53.066Z,36.10
2022-12-17T08:25:38.123Z,27.67
2022-12-17T08:31:28.220Z,46.67
2022-12-17T08:34:13.117Z,37.70
2022-12-17T08:36:58.035Z,45.17
2022-12-17T08:39:42.941Z,54.67
2022-12-17T08:42:30.441Z,68.17
2022-12-17T08:45:15.726Z,58.27
2022-12-17T08:48:04.072Z,67.10
2022-12-17T08:50:51.722Z,92.50
2022-12-17T08:53:37.368Z,59.13
2022-12-17T08:56:22.800Z,78.10
2022-12-17T08:59:08.110Z,59.50
2022-12-17T09:01:54.311Z,60.07
2022-12-17T09:04:53.156Z,66.23
2022-12-17T09:07:38.465Z,55.57
2022-12-17T09:10:24.036Z,75.27
2022-12-17T09:13:10.143Z,70.07
2022-12-17T09:15:57.649Z,64.47
2022-12-17T09:18:59.736Z,72.97
2022-12-17T09:21:47.097Z,55.73
2022-12-17T09:24:33.155Z,80.37
2022-12-17T09:27:18.402Z,48.53
2022-12-17T09:30:04.720Z,52.87
2022-12-17T09:32:49.516Z,50.13
2022-12-17T09:35:37.138Z,59.17
2022-12-17T09:38:25.683Z,60.17
2022-12-17T09:41:12.802Z,62.43
2022-12-17T09:44:10.247Z,44.60
2022-12-17T09:47:40.536Z,39.13
2022-12-17T09:50:32.292Z,43.83
2022-12-17T09:53:20.625Z,50.93
2022-12-17T09:56:08.855Z,53.30
2022-12-17T09:58:57.703Z,64.77
2022-12-17T10:01:46.953Z,42.33
2022-12-17T10:05:00.904Z,56.20
2022-12-17T10:07:54.390Z,48.20
2022-12-17T10:10:43.599Z,56.80
2022-12-17T10:13:40.938Z,56.73
2022-12-17T10:16:47.193Z,54.20
2022-12-17T10:19:42.260Z,55.57
2022-12-17T10:22:38.062Z,68.27
2022-12-17T10:25:34.208Z,73.33
2022-12-17T10:28:22.070Z,65.17
2022-12-17T10:31:07.351Z,50.30
2022-12-17T10:33:57.554Z,57.80
2022-12-17T10:36:44.243Z,51.47
2022-12-17T10:39:40.049Z,68.80
2022-12-17T10:42:49.687Z,56.57
2022-12-17T10:45:59.436Z,80.37
2022-12-17T10:48:46.916Z,69.27
2022-12-17T10:51:40.341Z,62.07
2022-12-17T10:54:49.055Z,56.23
2022-12-17T10:57:52.699Z,68.57
2022-12-17T11:00:50.223Z,65.07
2022-12-17T11:03:54.558Z,57.27
2022-12-17T11:06:45.632Z,66.33
2022-12-17T11:09:56.419Z,62.83
2022-12-17T11:12:52.357Z,64.30
2022-12-17T11:15:40.731Z,63.77
2022-12-17T11:18:33.707Z,56.37
2022-12-17T11:24:43.198Z,55.43
2022-12-17T11:27:34.882Z,61.07
2022-12-17T11:30:19.769Z,63.40
2022-12-17T11:33:14.127Z,68.50
2022-12-17T11:36:11.400Z,61.97
2022-12-17T11:39:01.029Z,66.27
2022-12-17T11:42:18.804Z,66.87
2022-12-17T11:45:14.444Z,61.03
2022-12-17T11:48:02.632Z,52.93
2022-12-17T11:51:06.394Z,58.40
2022-12-17T11:54:23.888Z,58.20
2022-12-17T11:57:15.848Z,61.83
2022-12-17T12:00:13.687Z,61.30
2022-12-17T12:03:34.435Z,70.30
2022-12-17T12:06:24.160Z,63.57
2022-12-17T12:09:47.024Z,56.53
2022-12-17T12:12:48.936Z,54.90
2022-12-17T12:16:03.082Z,56.65
2022-12-17T12:19:11.105Z,50.28
2022-12-17T12:22:06.609Z,55.40
2022-12-17T12:25:16.002Z,59.67
2022-12-17T12:28:13.077Z,57.33
2022-12-17T12:31:12.154Z,49.60
2022-12-17T12:34:09.296Z,52.13
2022-12-17T12:36:56.377Z,47.07
2022-12-17T12:39:52.937Z,52.30
2022-12-17T12:42:58.212Z,55.90
2022-12-17T12:46:35.643Z,48.65
2022-12-17T12:49:26.563Z,57.27
2022-12-17T12:52:14.261Z,54.33
2022-12-17T12:55:13.060Z,62.47
2022-12-17T12:58:18.397Z,59.27
2022-12-17T13:01:06.695Z,68.63
2022-12-17T13:04:04.432Z,55.53
2022-12-17T13:06:50.837Z,65.27
2022-12-17T13:09:18.384Z,57.00
2022-12-17T13:11:48.231Z,63.20
2022-12-17T13:14:24.178Z,62.70
2022-12-17T13:16:52.586Z,69.73
2022-12-17T13:19:31.530Z,63.00
2022-12-17T13:22:20.041Z,64.33
2022-12-17T13:24:53.621Z,62.27
2022-12-17T13:27:35.134Z,71.67
2022-12-17T13:30:18.261Z,65.30
2022-12-17T13:33:19.078Z,71.50
2022-12-17T13:35:59.445Z,76.90
2022-12-17T13:38:57.313Z,57.90
2022-12-17T13:41:31.060Z,76.33
2022-12-17T13:44:02.386Z,76.70
2022-12-17T13:46:52.455Z,74.97
2022-12-17T13:49:26.084Z,83.30
2022-12-17T13:52:18.283Z,80.10
2022-12-17T13:54:45.425Z,76.32
2022-12-17T13:57:14.605Z,86.60
2022-12-17T13:59:48.538Z,67.70
2022-12-17T14:02:30.659Z,108.03
2022-12-17T14:05:07.529Z,79.93
2022-12-17T14:07:38.881Z,88.23
2022-12-17T14:10:14.768Z,85.47
2022-12-17T14:12:41.398Z,87.27
2022-12-17T14:15:22.171Z,97.57
2022-12-17T14:17:49.977Z,101.23
2022-12-17T14:20:19.969Z,82.80
2022-12-17T14:22:51.875Z,87.70
2022-12-17T14:25:31.531Z,86.57
2022-12-17T14:28:05.328Z,82.93
2022-12-17T14:30:50.954Z,85.17
2022-12-17T14:33:35.912Z,95.23
2022-12-17T14:36:09.192Z,113.43
2022-12-17T14:38:40.698Z,100.47
2022-12-17T14:41:32.974Z,109.53
2022-12-17T14:44:01.873Z,94.70
2022-12-17T14:46:30.924Z,95.43
2022-12-17T14:49:03.521Z,78.33
2022-12-17T14:54:31.541Z,84.13
2022-12-17T14:57:00.125Z,98.77
2022-12-17T14:59:38.029Z,98.03
2022-12-17T15:02:24.021Z,92.40
2022-12-17T15:04:53.146Z,75.00
2022-12-17T15:07:28.112Z,85.47
2022-12-17T15:09:55.906Z,88.03
2022-12-17T15:12:25.637Z,79.20
2022-12-17T15:14:52.181Z,62.97
2022-12-17T15:17:21.531Z,84.63
2022-12-17T15:19:54.176Z,83.13
2022-12-17T15:22:22.548Z,78.10
2022-12-17T15:24:49.310Z,85.40
2022-12-17T15:27:17.054Z,71.07
2022-12-17T15:29:44.074Z,84.93
2022-12-17T15:32:18.363Z,68.83
2022-12-17T15:34:45.021Z,75.70
2022-12-17T15:37:12.000Z,60.63
2022-12-17T15:39:38.611Z,55.97
2022-12-17T15:42:24.098Z,62.40
2022-12-17T15:44:50.543Z,70.40
2022-12-17T15:47:16.976Z,72.03
2022-12-17T15:49:44.833Z,80.30
2022-12-17T15:52:14.892Z,66.20
2022-12-17T15:54:42.915Z,60.30
2022-12-17T15:57:18.248Z,76.63
2022-12-17T15:59:45.104Z,70.50
2022-12-17T16:02:11.917Z,71.50
2022-12-17T16:04:38.787Z,69.03
2022-12-17T16:07:05.633Z,67.93
2022-12-17T16:09:32.096Z,77.80
2022-12-17T16:11:58.521Z,81.40
2022-12-17T16:14:25.063Z,66.20
2022-12-17T16:16:52.413Z,70.00
2022-12-17T16:19:22.537Z,67.70
2022-12-17T16:21:49.092Z,74.03
2022-12-17T16:24:17.820Z,69.47
2022-12-17T16:26:44.591Z,61.57
2022-12-17T16:29:15.994Z,63.23
2022-12-17T16:31:42.615Z,66.60
2022-12-17T16:34:12.897Z,73.57
2022-12-17T16:36:39.506Z,83.43
2022-12-17T16:39:14.342Z,65.50
2022-12-17T16:41:40.790Z,81.07
2022-12-17T16:44:09.719Z,64.33
2022-12-17T16:46:39.308Z,89.23
2022-12-17T16:49:09.240Z,69.13
2022-12-17T16:51:36.296Z,79.53
2022-12-17T16:54:09.150Z,69.70
2022-12-17T16:56:39.929Z,72.17
2022-12-17T16:59:08.231Z,77.77
2022-12-17T17:01:41.747Z,76.83
2022-12-17T17:04:09.791Z,63.87
2022-12-17T17:07:04.922Z,69.03
2022-12-17T17:09:31.565Z,75.57
2022-12-17T17:11:59.033Z,76.77
2022-12-17T17:14:26.876Z,58.40
2022-12-17T17:16:53.311Z,63.40
2022-12-17T17:19:20.598Z,67.83
2022-12-17T17:21:54.679Z,76.93
2022-12-17T17:24:24.035Z,72.53
2022-12-17T17:26:54.067Z,74.80
2022-12-17T17:29:21.734Z,74.70
2022-12-17T17:34:41.361Z,86.73
2022-12-17T17:37:10.225Z,78.43
2022-12-17T17:39:36.634Z,68.60
2022-12-17T17:42:03.439Z,75.93
2022-12-17T17:44:30.088Z,64.60
2022-12-17T17:46:56.560Z,79.67
2022-12-17T17:49:23.439Z,66.30
2022-12-17T17:52:09.025Z,75.90
2022-12-17T17:54:40.064Z,68.17
2022-12-17T17:57:06.665Z,88.90
2022-12-17T17:59:34.298Z,63.73
2022-12-17T18:02:02.128Z,54.03
2022-12-17T18:04:29.047Z,68.10
2022-12-17T18:07:24.214Z,71.43
2022-12-17T18:09:44.551Z,64.90
2022-12-17T18:12:29.684Z,78.47
2022-12-17T18:17:43.556Z,92.43
2022-12-17T18:20:13.750Z,88.27
2022-12-17T18:22:40.572Z,62.57
2022-12-17T18:25:08.274Z,61.10
2022-12-17T18:27:34.791Z,69.30
2022-12-17T18:30:01.249Z,68.93
2022-12-17T18:32:27.740Z,79.23
2022-12-17T18:34:54.787Z,65.50
2022-12-17T18:37:21.290Z,63.43
2022-12-17T18:39:48.739Z,59.40
2022-12-17T18:42:34.597Z,61.63
2022-12-17T18:45:03.285Z,65.83
2022-12-17T18:47:29.906Z,76.27
2022-12-17T18:49:57.490Z,66.60
2022-12-17T18:52:24.052Z,61.57
2022-12-17T18:54:50.506Z,58.13
2022-12-17T18:57:17.159Z,61.90
2022-12-17T18:59:43.696Z,63.93
2022-12-17T19:02:12.291Z,80.03
2022-12-17T19:04:39.251Z,62.30
2022-12-17T19:07:05.731Z,72.13
2022-12-17T19:09:36.116Z,61.67
2022-12-17T19:12:05.979Z,66.30
2022-12-17T19:14:35.746Z,61.03
2022-12-17T19:17:02.798Z,57.03
2022-12-17T19:19:31.202Z,68.33
2022-12-17T19:22:00.036Z,63.73
2022-12-17T19:24:26.725Z,70.70
2022-12-17T19:26:53.413Z,67.80
2022-12-17T19:29:20.956Z,70.97
2022-12-17T19:31:48.169Z,70.03
2022-12-17T19:34:19.981Z,73.70
2022-12-17T19:36:49.862Z,57.03
2022-12-17T19:39:18.991Z,65.23
2022-12-17T19:41:46.085Z,85.20
2022-12-17T19:44:15.443Z,65.97
2022-12-17T19:46:44.791Z,48.57
2022-12-17T19:49:13.339Z,76.70
2022-12-17T19:51:42.796Z,56.07
2022-12-17T19:54:12.142Z,52.80
2022-12-17T19:56:38.894Z,70.00
2022-12-17T19:59:08.105Z,68.60
2022-12-17T20:01:40.436Z,61.73
2022-12-17T20:04:06.979Z,55.03
2022-12-17T20:06:34.810Z,71.70
2022-12-17T20:09:04.260Z,58.93
2022-12-17T20:11:36.444Z,56.73
2022-12-17T20:14:10.091Z,68.78
2022-12-17T20:16:40.408Z,63.53
2022-12-17T20:19:10.932Z,68.50
2022-12-17T20:21:37.616Z,67.77
2022-12-17T20:24:06.528Z,45.07
2022-12-17T20:26:33.076Z,78.30
2022-12-17T20:29:00.040Z,64.80
2022-12-17T20:31:29.009Z,70.93
2022-12-17T20:34:06.894Z,61.50
2022-12-17T20:36:34.384Z,67.17
2022-12-17T20:39:00.894Z,63.40
2022-12-17T20:41:29.515Z,67.13
2022-12-17T20:43:56.611Z,72.93
2022-12-17T20:46:24.967Z,65.93
2022-12-17T20:48:54.031Z,68.07
2022-12-17T20:51:23.688Z,69.93
2022-12-17T20:53:52.378Z,49.33
2022-12-17T20:56:23.435Z,50.90
2022-12-17T20:59:02.464Z,63.87
2022-12-17T21:01:33.682Z,52.83
2022-12-17T21:04:02.027Z,56.57
2022-12-17T21:06:41.669Z,67.57
2022-12-17T21:09:08.679Z,46.67
2022-12-17T21:11:36.801Z,54.13
2022-12-17T21:14:16.907Z,67.40
2022-12-17T21:16:44.418Z,72.90
2022-12-17T21:19:22.912Z,53.83
2022-12-17T21:21:49.577Z,69.77
2022-12-17T21:24:16.121Z,64.77
2022-12-17T21:26:44.231Z,62.47
2022-12-17T21:29:11.236Z,63.53
2022-12-17T21:31:41.307Z,62.37
2022-12-17T21:34:18.867Z,59.83
2022-12-17T21:36:45.383Z,74.73
2022-12-17T21:39:18.058Z,51.20
2022-12-17T21:42:08.669Z,57.90
2022-12-17T21:44:35.690Z,69.07
2022-12-17T21:47:05.023Z,72.73
2022-12-17T21:49:31.855Z,48.87
2022-12-17T21:52:00.256Z,67.83
2022-12-17T21:54:29.288Z,71.73
2022-12-17T21:56:55.812Z,54.07
2022-12-17T21:59:23.626Z,77.80
2022-12-17T22:01:50.812Z,59.73
2022-12-17T22:04:17.541Z,60.03
2022-12-17T22:06:50.928Z,66.80
2022-12-17T22:09:36.085Z,62.20
2022-12-17T22:12:28.745Z,55.83
2022-12-17T22:14:55.158Z,56.33
2022-12-17T22:17:25.315Z,52.37
2022-12-17T22:19:51.730Z,64.10
2022-12-17T22:22:18.165Z,61.90
2022-12-17T22:24:44.587Z,62.13
2022-12-17T22:27:14.155Z,67.70
2022-12-17T22:29:59.603Z,75.67
2022-12-17T22:32:44.802Z,65.53
2022-12-17T22:37:06.413Z,59.93
2022-12-17T22:42:18.635Z,63.63
2022-12-17T22:44:02.728Z,57.63
2022-12-17T22:44:42.605Z,56.67
2022-12-17T22:46:21.963Z,53.63
2022-12-17T22:48:50.834Z,60.50
2022-12-17T22:51:26.586Z,131.83
2022-12-17T22:54:09.284Z,64.23
2022-12-17T22:57:03.100Z,61.42
2022-12-17T22:59:24.503Z,57.10
2022-12-17T23:01:51.077Z,77.77
2022-12-17T23:04:17.813Z,77.30
2022-12-17T23:06:46.954Z,79.30
2022-12-17T23:09:19.236Z,72.10
2022-12-17T23:11:47.383Z,73.10
2022-12-17T23:14:14.406Z,75.37
2022-12-17T23:16:41.064Z,72.87
2022-12-17T23:19:14.929Z,63.50
2022-12-17T23:21:41.403Z,48.43
2022-12-17T23:24:09.385Z,59.63
2022-12-17T23:26:37.285Z,55.67
2022-12-17T23:29:08.871Z,59.17
2022-12-17T23:31:38.021Z,67.03
2022-12-17T23:34:05.372Z,50.47
2022-12-17T23:36:32.180Z,59.43
2022-12-17T23:38:59.104Z,53.17
2022-12-17T23:41:31.198Z,65.87
2022-12-17T23:43:58.443Z,68.07
2022-12-17T23:46:27.073Z,73.23
2022-12-17T23:48:53.925Z,66.50
2022-12-17T23:51:22.227Z,66.00
2022-12-17T23:53:48.994Z,61.57
2022-12-17T23:56:18.987Z,64.73
2022-12-17T23:58:46.648Z,54.37
